sensor_id;sensor_type;location;lat;lon;timestamp;P1;durP1;ratioP1;P2;durP2;ratioP2
17363;SDS011;8799;43.594;13.526;2022-09-16T00:01:35;9.67;;;1.83;;
17363;SDS011;8799;43.594;13.526;2022-09-16T00:04:05;8.17;;;2.33;;
17363;SDS011;8799;43.594;13.526;2022-09-16T00:06:34;5.90;;;1.50;;
17363;SDS011;8799;43.594;13.526;2022-09-16T00:09:02;6.40;;;1.70;;
17363;SDS011;8799;43.594;13.526;2022-09-16T00:11:30;7.97;;;2.07;;
17363;SDS011;8799;43.594;13.526;2022-09-16T00:13:59;9.87;;;1.80;;
17363;SDS011;8799;43.594;13.526;2022-09-16T00:16:28;10.03;;;1.80;;
17363;SDS011;8799;43.594;13.526;2022-09-16T00:18:57;5.87;;;2.20;;
17363;SDS011;8799;43.594;13.526;2022-09-16T00:21:27;6.37;;;1.73;;
17363;SDS011;8799;43.594;13.526;2022-09-16T00:23:56;6.60;;;1.83;;
17363;SDS011;8799;43.594;13.526;2022-09-16T00:26:24;4.67;;;1.80;;
17363;SDS011;8799;43.594;13.526;2022-09-16T00:28:51;6.27;;;2.37;;
17363;SDS011;8799;43.594;13.526;2022-09-16T00:31:20;11.87;;;2.07;;
17363;SDS011;8799;43.594;13.526;2022-09-16T00:33:48;8.23;;;1.80;;
17363;SDS011;8799;43.594;13.526;2022-09-16T00:36:17;6.03;;;1.73;;
17363;SDS011;8799;43.594;13.526;2022-09-16T00:38:50;7.73;;;1.77;;
17363;SDS011;8799;43.594;13.526;2022-09-16T00:41:20;5.57;;;1.77;;
17363;SDS011;8799;43.594;13.526;2022-09-16T00:43:51;9.13;;;1.90;;
17363;SDS011;8799;43.594;13.526;2022-09-16T00:46:23;6.17;;;1.90;;
17363;SDS011;8799;43.594;13.526;2022-09-16T00:48:55;6.43;;;1.60;;
17363;SDS011;8799;43.594;13.526;2022-09-16T00:51:24;4.67;;;1.73;;
17363;SDS011;8799;43.594;13.526;2022-09-16T00:53:56;7.23;;;1.83;;
17363;SDS011;8799;43.594;13.526;2022-09-16T00:56:27;6.73;;;1.93;;
17363;SDS011;8799;43.594;13.526;2022-09-16T00:58:59;6.57;;;1.90;;
17363;SDS011;8799;43.594;13.526;2022-09-16T01:01:32;8.57;;;1.73;;
17363;SDS011;8799;43.594;13.526;2022-09-16T01:04:01;8.67;;;2.27;;
17363;SDS011;8799;43.594;13.526;2022-09-16T01:06:32;3.27;;;1.43;;
17363;SDS011;8799;43.594;13.526;2022-09-16T01:09:06;5.83;;;1.70;;
17363;SDS011;8799;43.594;13.526;2022-09-16T01:11:33;8.93;;;1.97;;
17363;SDS011;8799;43.594;13.526;2022-09-16T01:14:01;6.27;;;1.70;;
17363;SDS011;8799;43.594;13.526;2022-09-16T01:16:44;3.97;;;1.80;;
17363;SDS011;8799;43.594;13.526;2022-09-16T01:19:26;6.13;;;2.03;;
17363;SDS011;8799;43.594;13.526;2022-09-16T01:22:12;8.73;;;1.90;;
17363;SDS011;8799;43.594;13.526;2022-09-16T01:24:55;6.07;;;1.80;;
17363;SDS011;8799;43.594;13.526;2022-09-16T01:27:43;11.10;;;1.67;;
17363;SDS011;8799;43.594;13.526;2022-09-16T01:30:38;7.33;;;1.63;;
17363;SDS011;8799;43.594;13.526;2022-09-16T01:33:21;8.57;;;2.10;;
17363;SDS011;8799;43.594;13.526;2022-09-16T01:36:10;8.37;;;1.83;;
17363;SDS011;8799;43.594;13.526;2022-09-16T01:38:53;4.47;;;1.60;;
17363;SDS011;8799;43.594;13.526;2022-09-16T01:41:29;7.07;;;1.83;;
17363;SDS011;8799;43.594;13.526;2022-09-16T01:44:08;7.87;;;1.80;;
17363;SDS011;8799;43.594;13.526;2022-09-16T01:46:47;9.40;;;2.27;;
17363;SDS011;8799;43.594;13.526;2022-09-16T01:49:21;7.27;;;2.10;;
17363;SDS011;8799;43.594;13.526;2022-09-16T01:51:59;6.83;;;2.53;;
17363;SDS011;8799;43.594;13.526;2022-09-16T01:54:33;5.33;;;2.10;;
17363;SDS011;8799;43.594;13.526;2022-09-16T01:57:06;8.60;;;1.90;;
17363;SDS011;8799;43.594;13.526;2022-09-16T01:59:39;6.40;;;1.70;;
17363;SDS011;8799;43.594;13.526;2022-09-16T02:02:12;9.73;;;2.20;;
17363;SDS011;8799;43.594;13.526;2022-09-16T02:04:44;8.67;;;1.93;;
17363;SDS011;8799;43.594;13.526;2022-09-16T02:07:16;8.03;;;1.70;;
17363;SDS011;8799;43.594;13.526;2022-09-16T02:09:51;12.83;;;1.80;;
17363;SDS011;8799;43.594;13.526;2022-09-16T02:12:24;9.23;;;2.20;;
17363;SDS011;8799;43.594;13.526;2022-09-16T02:14:56;9.10;;;1.87;;
17363;SDS011;8799;43.594;13.526;2022-09-16T02:17:31;8.03;;;2.00;;
17363;SDS011;8799;43.594;13.526;2022-09-16T02:20:03;7.63;;;2.20;;
17363;SDS011;8799;43.594;13.526;2022-09-16T02:22:35;5.57;;;1.80;;
17363;SDS011;8799;43.594;13.526;2022-09-16T02:25:07;5.60;;;1.80;;
17363;SDS011;8799;43.594;13.526;2022-09-16T02:27:38;7.80;;;1.70;;
17363;SDS011;8799;43.594;13.526;2022-09-16T02:30:09;10.30;;;3.03;;
17363;SDS011;8799;43.594;13.526;2022-09-16T02:32:43;4.73;;;1.70;;
17363;SDS011;8799;43.594;13.526;2022-09-16T02:35:14;6.80;;;1.73;;
17363;SDS011;8799;43.594;13.526;2022-09-16T02:37:46;7.40;;;1.70;;
17363;SDS011;8799;43.594;13.526;2022-09-16T02:40:18;4.33;;;1.43;;
17363;SDS011;8799;43.594;13.526;2022-09-16T02:42:50;4.93;;;1.90;;
17363;SDS011;8799;43.594;13.526;2022-09-16T02:45:19;10.87;;;2.47;;
17363;SDS011;8799;43.594;13.526;2022-09-16T02:47:58;8.37;;;2.10;;
17363;SDS011;8799;43.594;13.526;2022-09-16T02:50:31;7.77;;;2.03;;
17363;SDS011;8799;43.594;13.526;2022-09-16T02:53:07;12.30;;;2.10;;
17363;SDS011;8799;43.594;13.526;2022-09-16T02:55:44;14.83;;;1.93;;
17363;SDS011;8799;43.594;13.526;2022-09-16T02:58:19;6.20;;;1.83;;
17363;SDS011;8799;43.594;13.526;2022-09-16T03:00:48;10.60;;;2.03;;
17363;SDS011;8799;43.594;13.526;2022-09-16T03:03:21;8.80;;;2.07;;
17363;SDS011;8799;43.594;13.526;2022-09-16T03:05:59;9.57;;;2.27;;
17363;SDS011;8799;43.594;13.526;2022-09-16T03:08:40;8.70;;;2.03;;
17363;SDS011;8799;43.594;13.526;2022-09-16T03:11:13;5.17;;;1.70;;
17363;SDS011;8799;43.594;13.526;2022-09-16T03:14:01;7.20;;;1.83;;
17363;SDS011;8799;43.594;13.526;2022-09-16T03:16:42;5.80;;;1.43;;
17363;SDS011;8799;43.594;13.526;2022-09-16T03:19:23;7.90;;;2.37;;
17363;SDS011;8799;43.594;13.526;2022-09-16T03:21:58;12.13;;;2.70;;
17363;SDS011;8799;43.594;13.526;2022-09-16T03:24:35;5.27;;;1.97;;
17363;SDS011;8799;43.594;13.526;2022-09-16T03:27:10;7.77;;;1.80;;
17363;SDS011;8799;43.594;13.526;2022-09-16T03:29:44;12.23;;;2.17;;
17363;SDS011;8799;43.594;13.526;2022-09-16T03:32:17;8.67;;;2.00;;
17363;SDS011;8799;43.594;13.526;2022-09-16T03:34:50;8.97;;;1.77;;
17363;SDS011;8799;43.594;13.526;2022-09-16T03:37:20;8.20;;;1.87;;
17363;SDS011;8799;43.594;13.526;2022-09-16T03:39:50;7.87;;;2.03;;
17363;SDS011;8799;43.594;13.526;2022-09-16T03:42:19;10.80;;;1.90;;
17363;SDS011;8799;43.594;13.526;2022-09-16T03:44:48;9.37;;;2.23;;
17363;SDS011;8799;43.594;13.526;2022-09-16T03:47:16;9.60;;;1.97;;
17363;SDS011;8799;43.594;13.526;2022-09-16T03:49:44;11.57;;;2.27;;
17363;SDS011;8799;43.594;13.526;2022-09-16T03:52:14;7.90;;;1.80;;
17363;SDS011;8799;43.594;13.526;2022-09-16T03:54:43;6.73;;;2.27;;
17363;SDS011;8799;43.594;13.526;2022-09-16T03:57:11;8.73;;;2.80;;
17363;SDS011;8799;43.594;13.526;2022-09-16T03:59:39;6.73;;;2.00;;
17363;SDS011;8799;43.594;13.526;2022-09-16T04:02:07;8.03;;;2.10;;
17363;SDS011;8799;43.594;13.526;2022-09-16T04:04:36;11.27;;;2.47;;
17363;SDS011;8799;43.594;13.526;2022-09-16T04:07:04;5.17;;;1.93;;
17363;SDS011;8799;43.594;13.526;2022-09-16T04:09:33;7.03;;;1.90;;
17363;SDS011;8799;43.594;13.526;2022-09-16T04:12:02;10.20;;;2.10;;
17363;SDS011;8799;43.594;13.526;2022-09-16T04:14:31;10.27;;;2.37;;
17363;SDS011;8799;43.594;13.526;2022-09-16T04:16:59;5.93;;;1.57;;
17363;SDS011;8799;43.594;13.526;2022-09-16T04:19:27;4.50;;;1.97;;
17363;SDS011;8799;43.594;13.526;2022-09-16T04:21:55;8.27;;;1.93;;
17363;SDS011;8799;43.594;13.526;2022-09-16T04:24:23;8.47;;;2.03;;
17363;SDS011;8799;43.594;13.526;2022-09-16T04:26:53;4.17;;;1.57;;
17363;SDS011;8799;43.594;13.526;2022-09-16T04:29:21;9.73;;;2.37;;
17363;SDS011;8799;43.594;13.526;2022-09-16T04:31:49;5.27;;;1.63;;
17363;SDS011;8799;43.594;13.526;2022-09-16T04:34:17;4.90;;;1.70;;
17363;SDS011;8799;43.594;13.526;2022-09-16T04:36:45;8.40;;;2.00;;
17363;SDS011;8799;43.594;13.526;2022-09-16T04:39:13;6.40;;;2.20;;
17363;SDS011;8799;43.594;13.526;2022-09-16T04:41:41;7.93;;;1.70;;
17363;SDS011;8799;43.594;13.526;2022-09-16T04:44:12;7.30;;;2.33;;
17363;SDS011;8799;43.594;13.526;2022-09-16T04:46:40;8.50;;;2.47;;
17363;SDS011;8799;43.594;13.526;2022-09-16T04:49:08;5.70;;;2.40;;
17363;SDS011;8799;43.594;13.526;2022-09-16T04:51:36;2.30;;;1.60;;
17363;SDS011;8799;43.594;13.526;2022-09-16T04:54:05;10.07;;;2.10;;
17363;SDS011;8799;43.594;13.526;2022-09-16T04:56:33;8.67;;;1.53;;
17363;SDS011;8799;43.594;13.526;2022-09-16T04:59:02;10.93;;;2.10;;
17363;SDS011;8799;43.594;13.526;2022-09-16T05:01:33;5.53;;;1.60;;
17363;SDS011;8799;43.594;13.526;2022-09-16T05:04:03;7.10;;;2.10;;
17363;SDS011;8799;43.594;13.526;2022-09-16T05:06:34;8.27;;;2.03;;
17363;SDS011;8799;43.594;13.526;2022-09-16T05:09:02;9.67;;;2.43;;
17363;SDS011;8799;43.594;13.526;2022-09-16T05:11:32;10.40;;;2.20;;
17363;SDS011;8799;43.594;13.526;2022-09-16T05:14:03;14.13;;;3.00;;
17363;SDS011;8799;43.594;13.526;2022-09-16T05:16:33;5.83;;;2.00;;
17363;SDS011;8799;43.594;13.526;2022-09-16T05:19:02;10.27;;;2.40;;
17363;SDS011;8799;43.594;13.526;2022-09-16T05:21:31;12.17;;;2.37;;
17363;SDS011;8799;43.594;13.526;2022-09-16T05:24:00;11.53;;;2.17;;
17363;SDS011;8799;43.594;13.526;2022-09-16T05:26:30;8.17;;;2.20;;
17363;SDS011;8799;43.594;13.526;2022-09-16T05:28:59;7.33;;;2.17;;
17363;SDS011;8799;43.594;13.526;2022-09-16T05:31:28;4.10;;;1.80;;
17363;SDS011;8799;43.594;13.526;2022-09-16T05:33:59;6.33;;;2.13;;
17363;SDS011;8799;43.594;13.526;2022-09-16T05:36:30;12.83;;;2.23;;
17363;SDS011;8799;43.594;13.526;2022-09-16T05:38:59;7.30;;;2.40;;
17363;SDS011;8799;43.594;13.526;2022-09-16T05:41:30;5.10;;;1.83;;
17363;SDS011;8799;43.594;13.526;2022-09-16T05:43:59;7.40;;;2.43;;
17363;SDS011;8799;43.594;13.526;2022-09-16T05:46:27;7.20;;;2.20;;
17363;SDS011;8799;43.594;13.526;2022-09-16T05:48:55;10.33;;;2.30;;
17363;SDS011;8799;43.594;13.526;2022-09-16T05:51:26;7.43;;;1.87;;
17363;SDS011;8799;43.594;13.526;2022-09-16T05:53:54;6.60;;;1.93;;
17363;SDS011;8799;43.594;13.526;2022-09-16T05:56:23;11.43;;;2.23;;
17363;SDS011;8799;43.594;13.526;2022-09-16T05:58:52;4.83;;;2.27;;
17363;SDS011;8799;43.594;13.526;2022-09-16T06:01:21;4.13;;;2.10;;
17363;SDS011;8799;43.594;13.526;2022-09-16T06:03:50;12.20;;;2.17;;
17363;SDS011;8799;43.594;13.526;2022-09-16T06:06:20;7.90;;;1.80;;
17363;SDS011;8799;43.594;13.526;2022-09-16T06:08:53;7.07;;;1.97;;
17363;SDS011;8799;43.594;13.526;2022-09-16T06:11:23;6.83;;;2.30;;
17363;SDS011;8799;43.594;13.526;2022-09-16T06:13:52;8.07;;;2.40;;
17363;SDS011;8799;43.594;13.526;2022-09-16T06:16:22;7.23;;;1.97;;
17363;SDS011;8799;43.594;13.526;2022-09-16T06:18:51;9.00;;;1.97;;
17363;SDS011;8799;43.594;13.526;2022-09-16T06:21:20;5.93;;;2.00;;
17363;SDS011;8799;43.594;13.526;2022-09-16T06:23:48;10.63;;;2.87;;
17363;SDS011;8799;43.594;13.526;2022-09-16T06:26:18;10.57;;;2.23;;
17363;SDS011;8799;43.594;13.526;2022-09-16T06:28:47;8.67;;;2.10;;
17363;SDS011;8799;43.594;13.526;2022-09-16T06:31:15;11.33;;;2.70;;
17363;SDS011;8799;43.594;13.526;2022-09-16T06:33:46;7.50;;;1.97;;
17363;SDS011;8799;43.594;13.526;2022-09-16T06:36:15;12.70;;;2.60;;
17363;SDS011;8799;43.594;13.526;2022-09-16T06:38:44;12.17;;;2.60;;
17363;SDS011;8799;43.594;13.526;2022-09-16T06:41:13;8.37;;;2.27;;
17363;SDS011;8799;43.594;13.526;2022-09-16T06:43:44;6.90;;;2.50;;
17363;SDS011;8799;43.594;13.526;2022-09-16T06:46:13;10.00;;;2.83;;
17363;SDS011;8799;43.594;13.526;2022-09-16T06:48:43;10.90;;;2.57;;
17363;SDS011;8799;43.594;13.526;2022-09-16T06:51:15;11.17;;;3.10;;
17363;SDS011;8799;43.594;13.526;2022-09-16T06:53:44;8.83;;;2.70;;
17363;SDS011;8799;43.594;13.526;2022-09-16T06:56:13;8.57;;;2.70;;
17363;SDS011;8799;43.594;13.526;2022-09-16T06:58:44;9.63;;;3.20;;
17363;SDS011;8799;43.594;13.526;2022-09-16T07:01:14;13.10;;;2.80;;
17363;SDS011;8799;43.594;13.526;2022-09-16T07:03:44;9.73;;;2.37;;
17363;SDS011;8799;43.594;13.526;2022-09-16T07:06:13;8.77;;;3.37;;
17363;SDS011;8799;43.594;13.526;2022-09-16T07:08:42;9.73;;;3.10;;
17363;SDS011;8799;43.594;13.526;2022-09-16T07:11:11;11.90;;;3.43;;
17363;SDS011;8799;43.594;13.526;2022-09-16T07:13:40;13.10;;;3.20;;
17363;SDS011;8799;43.594;13.526;2022-09-16T07:16:10;10.13;;;2.40;;
17363;SDS011;8799;43.594;13.526;2022-09-16T07:18:39;14.50;;;2.93;;
17363;SDS011;8799;43.594;13.526;2022-09-16T07:21:09;11.47;;;2.80;;
17363;SDS011;8799;43.594;13.526;2022-09-16T07:23:38;11.37;;;2.93;;
17363;SDS011;8799;43.594;13.526;2022-09-16T07:26:07;15.10;;;2.80;;
17363;SDS011;8799;43.594;13.526;2022-09-16T07:28:37;9.10;;;2.60;;
17363;SDS011;8799;43.594;13.526;2022-09-16T07:31:06;12.97;;;3.70;;
17363;SDS011;8799;43.594;13.526;2022-09-16T07:33:37;10.00;;;2.80;;
17363;SDS011;8799;43.594;13.526;2022-09-16T07:36:06;8.90;;;2.50;;
17363;SDS011;8799;43.594;13.526;2022-09-16T07:38:38;11.17;;;2.90;;
17363;SDS011;8799;43.594;13.526;2022-09-16T07:41:09;11.70;;;2.77;;
17363;SDS011;8799;43.594;13.526;2022-09-16T07:43:39;9.53;;;2.50;;
17363;SDS011;8799;43.594;13.526;2022-09-16T07:46:08;12.57;;;3.60;;
17363;SDS011;8799;43.594;13.526;2022-09-16T07:48:39;5.83;;;2.30;;
17363;SDS011;8799;43.594;13.526;2022-09-16T07:51:07;12.97;;;3.03;;
17363;SDS011;8799;43.594;13.526;2022-09-16T07:53:36;6.47;;;2.40;;
17363;SDS011;8799;43.594;13.526;2022-09-16T07:56:06;8.40;;;2.43;;
17363;SDS011;8799;43.594;13.526;2022-09-16T07:58:36;10.47;;;2.23;;
17363;SDS011;8799;43.594;13.526;2022-09-16T08:01:05;6.40;;;2.83;;
17363;SDS011;8799;43.594;13.526;2022-09-16T08:03:34;5.70;;;2.43;;
17363;SDS011;8799;43.594;13.526;2022-09-16T08:06:06;11.80;;;3.10;;
17363;SDS011;8799;43.594;13.526;2022-09-16T08:08:34;7.97;;;2.43;;
17363;SDS011;8799;43.594;13.526;2022-09-16T08:11:02;8.27;;;2.60;;
17363;SDS011;8799;43.594;13.526;2022-09-16T08:13:30;9.17;;;2.07;;
17363;SDS011;8799;43.594;13.526;2022-09-16T08:15:59;8.77;;;2.50;;
17363;SDS011;8799;43.594;13.526;2022-09-16T08:18:28;11.50;;;3.03;;
17363;SDS011;8799;43.594;13.526;2022-09-16T08:20:56;12.37;;;2.57;;
17363;SDS011;8799;43.594;13.526;2022-09-16T08:23:27;6.20;;;2.47;;
17363;SDS011;8799;43.594;13.526;2022-09-16T08:25:56;8.73;;;2.40;;
17363;SDS011;8799;43.594;13.526;2022-09-16T08:28:25;10.37;;;2.80;;
17363;SDS011;8799;43.594;13.526;2022-09-16T08:30:53;10.33;;;2.43;;
17363;SDS011;8799;43.594;13.526;2022-09-16T08:33:24;10.23;;;2.80;;
17363;SDS011;8799;43.594;13.526;2022-09-16T08:35:57;6.93;;;2.43;;
17363;SDS011;8799;43.594;13.526;2022-09-16T08:38:27;7.03;;;2.30;;
17363;SDS011;8799;43.594;13.526;2022-09-16T08:40:57;6.77;;;2.30;;
17363;SDS011;8799;43.594;13.526;2022-09-16T08:43:33;6.63;;;1.90;;
17363;SDS011;8799;43.594;13.526;2022-09-16T08:46:07;3.43;;;1.57;;
17363;SDS011;8799;43.594;13.526;2022-09-16T08:48:45;6.80;;;1.87;;
17363;SDS011;8799;43.594;13.526;2022-09-16T08:51:19;9.07;;;2.00;;
17363;SDS011;8799;43.594;13.526;2022-09-16T08:53:50;7.93;;;1.63;;
17363;SDS011;8799;43.594;13.526;2022-09-16T08:56:24;4.70;;;1.80;;
17363;SDS011;8799;43.594;13.526;2022-09-16T08:58:55;12.40;;;2.33;;
17363;SDS011;8799;43.594;13.526;2022-09-16T09:01:27;4.80;;;1.70;;
17363;SDS011;8799;43.594;13.526;2022-09-16T09:04:01;3.53;;;2.00;;
17363;SDS011;8799;43.594;13.526;2022-09-16T09:06:44;6.17;;;2.10;;
17363;SDS011;8799;43.594;13.526;2022-09-16T09:09:29;7.10;;;1.60;;
17363;SDS011;8799;43.594;13.526;2022-09-16T09:12:16;7.07;;;1.93;;
17363;SDS011;8799;43.594;13.526;2022-09-16T09:14:54;4.70;;;1.60;;
17363;SDS011;8799;43.594;13.526;2022-09-16T09:17:32;7.37;;;2.17;;
17363;SDS011;8799;43.594;13.526;2022-09-16T09:20:11;5.07;;;1.73;;
17363;SDS011;8799;43.594;13.526;2022-09-16T09:22:52;6.00;;;1.90;;
17363;SDS011;8799;43.594;13.526;2022-09-16T09:25:33;7.30;;;2.20;;
17363;SDS011;8799;43.594;13.526;2022-09-16T09:28:14;4.73;;;1.73;;
17363;SDS011;8799;43.594;13.526;2022-09-16T09:30:53;7.83;;;1.80;;
17363;SDS011;8799;43.594;13.526;2022-09-16T09:33:29;4.17;;;1.50;;
17363;SDS011;8799;43.594;13.526;2022-09-16T09:36:10;5.50;;;1.87;;
17363;SDS011;8799;43.594;13.526;2022-09-16T09:39:01;4.23;;;1.93;;
17363;SDS011;8799;43.594;13.526;2022-09-16T09:41:50;6.73;;;1.93;;
17363;SDS011;8799;43.594;13.526;2022-09-16T09:44:33;4.37;;;1.93;;
17363;SDS011;8799;43.594;13.526;2022-09-16T09:47:09;7.13;;;1.90;;
17363;SDS011;8799;43.594;13.526;2022-09-16T09:49:43;7.20;;;1.60;;
17363;SDS011;8799;43.594;13.526;2022-09-16T09:52:15;6.73;;;2.00;;
17363;SDS011;8799;43.594;13.526;2022-09-16T09:54:48;8.07;;;1.90;;
17363;SDS011;8799;43.594;13.526;2022-09-16T09:57:20;3.43;;;1.60;;
17363;SDS011;8799;43.594;13.526;2022-09-16T09:59:57;5.17;;;1.70;;
17363;SDS011;8799;43.594;13.526;2022-09-16T10:02:30;3.10;;;1.87;;
17363;SDS011;8799;43.594;13.526;2022-09-16T10:04:58;3.90;;;1.50;;
17363;SDS011;8799;43.594;13.526;2022-09-16T10:07:27;5.33;;;1.90;;
17363;SDS011;8799;43.594;13.526;2022-09-16T10:09:57;3.33;;;1.70;;
17363;SDS011;8799;43.594;13.526;2022-09-16T10:12:31;5.00;;;1.63;;
17363;SDS011;8799;43.594;13.526;2022-09-16T10:15:01;5.23;;;2.03;;
17363;SDS011;8799;43.594;13.526;2022-09-16T10:17:30;6.13;;;1.80;;
17363;SDS011;8799;43.594;13.526;2022-09-16T10:19:59;3.23;;;1.37;;
17363;SDS011;8799;43.594;13.526;2022-09-16T10:22:29;5.40;;;1.83;;
17363;SDS011;8799;43.594;13.526;2022-09-16T10:24:59;6.30;;;1.53;;
17363;SDS011;8799;43.594;13.526;2022-09-16T10:27:31;3.53;;;1.57;;
17363;SDS011;8799;43.594;13.526;2022-09-16T10:30:02;6.27;;;2.10;;
17363;SDS011;8799;43.594;13.526;2022-09-16T10:32:54;4.03;;;1.90;;
17363;SDS011;8799;43.594;13.526;2022-09-16T10:35:25;4.30;;;1.60;;
17363;SDS011;8799;43.594;13.526;2022-09-16T10:37:54;10.73;;;2.20;;
17363;SDS011;8799;43.594;13.526;2022-09-16T10:40:24;5.43;;;1.60;;
17363;SDS011;8799;43.594;13.526;2022-09-16T10:42:55;4.80;;;1.67;;
17363;SDS011;8799;43.594;13.526;2022-09-16T10:45:28;5.50;;;1.87;;
17363;SDS011;8799;43.594;13.526;2022-09-16T10:47:58;7.60;;;1.80;;
17363;SDS011;8799;43.594;13.526;2022-09-16T10:50:28;4.87;;;1.73;;
17363;SDS011;8799;43.594;13.526;2022-09-16T10:52:55;7.20;;;1.50;;
17363;SDS011;8799;43.594;13.526;2022-09-16T10:55:25;5.97;;;1.60;;
17363;SDS011;8799;43.594;13.526;2022-09-16T10:58:06;6.77;;;1.90;;
17363;SDS011;8799;43.594;13.526;2022-09-16T11:00:38;7.47;;;1.70;;
17363;SDS011;8799;43.594;13.526;2022-09-16T11:03:23;6.27;;;1.57;;
17363;SDS011;8799;43.594;13.526;2022-09-16T11:06:27;3.03;;;1.40;;
17363;SDS011;8799;43.594;13.526;2022-09-16T11:09:11;7.30;;;1.87;;
17363;SDS011;8799;43.594;13.526;2022-09-16T11:12:00;6.60;;;2.00;;
17363;SDS011;8799;43.594;13.526;2022-09-16T11:14:46;5.13;;;1.60;;
17363;SDS011;8799;43.594;13.526;2022-09-16T11:17:25;10.53;;;1.73;;
17363;SDS011;8799;43.594;13.526;2022-09-16T11:20:11;6.33;;;2.10;;
17363;SDS011;8799;43.594;13.526;2022-09-16T11:22:55;6.60;;;2.07;;
17363;SDS011;8799;43.594;13.526;2022-09-16T11:25:34;3.63;;;1.33;;
17363;SDS011;8799;43.594;13.526;2022-09-16T11:28:14;7.90;;;1.90;;
17363;SDS011;8799;43.594;13.526;2022-09-16T11:31:09;6.37;;;1.60;;
17363;SDS011;8799;43.594;13.526;2022-09-16T11:33:46;3.87;;;1.67;;
17363;SDS011;8799;43.594;13.526;2022-09-16T11:36:34;6.37;;;1.77;;
17363;SDS011;8799;43.594;13.526;2022-09-16T11:39:22;5.73;;;2.00;;
17363;SDS011;8799;43.594;13.526;2022-09-16T11:42:03;6.47;;;1.83;;
17363;SDS011;8799;43.594;13.526;2022-09-16T11:44:39;4.23;;;1.40;;
17363;SDS011;8799;43.594;13.526;2022-09-16T11:50:21;4.40;;;2.07;;
17363;SDS011;8799;43.594;13.526;2022-09-16T11:55:53;5.63;;;1.40;;
17363;SDS011;8799;43.594;13.526;2022-09-16T11:58:30;6.10;;;1.53;;
17363;SDS011;8799;43.594;13.526;2022-09-16T12:01:04;6.47;;;1.80;;
17363;SDS011;8799;43.594;13.526;2022-09-16T12:03:41;6.27;;;1.80;;
17363;SDS011;8799;43.594;13.526;2022-09-16T12:06:16;4.37;;;1.67;;
17363;SDS011;8799;43.594;13.526;2022-09-16T12:08:52;3.17;;;1.50;;
17363;SDS011;8799;43.594;13.526;2022-09-16T12:11:25;6.33;;;1.67;;
17363;SDS011;8799;43.594;13.526;2022-09-16T12:13:58;7.43;;;1.60;;
17363;SDS011;8799;43.594;13.526;2022-09-16T12:16:35;5.83;;;1.80;;
17363;SDS011;8799;43.594;13.526;2022-09-16T12:19:09;4.63;;;1.70;;
17363;SDS011;8799;43.594;13.526;2022-09-16T12:21:44;3.97;;;1.47;;
17363;SDS011;8799;43.594;13.526;2022-09-16T12:24:16;6.13;;;1.77;;
17363;SDS011;8799;43.594;13.526;2022-09-16T12:26:49;6.97;;;1.70;;
17363;SDS011;8799;43.594;13.526;2022-09-16T12:29:24;6.67;;;1.60;;
17363;SDS011;8799;43.594;13.526;2022-09-16T12:31:58;4.60;;;1.60;;
17363;SDS011;8799;43.594;13.526;2022-09-16T12:34:30;6.27;;;1.63;;
17363;SDS011;8799;43.594;13.526;2022-09-16T12:37:05;6.13;;;1.83;;
17363;SDS011;8799;43.594;13.526;2022-09-16T12:39:41;6.40;;;1.87;;
17363;SDS011;8799;43.594;13.526;2022-09-16T12:42:21;5.80;;;2.00;;
17363;SDS011;8799;43.594;13.526;2022-09-16T12:45:24;6.27;;;1.87;;
17363;SDS011;8799;43.594;13.526;2022-09-16T12:51:19;7.77;;;1.90;;
17363;SDS011;8799;43.594;13.526;2022-09-16T12:57:10;8.17;;;2.07;;
17363;SDS011;8799;43.594;13.526;2022-09-16T12:59:55;5.33;;;1.73;;
17363;SDS011;8799;43.594;13.526;2022-09-16T13:02:39;5.90;;;1.67;;
17363;SDS011;8799;43.594;13.526;2022-09-16T13:05:13;4.03;;;2.07;;
17363;SDS011;8799;43.594;13.526;2022-09-16T13:07:47;7.30;;;1.90;;
17363;SDS011;8799;43.594;13.526;2022-09-16T13:10:21;8.83;;;2.43;;
17363;SDS011;8799;43.594;13.526;2022-09-16T13:12:54;6.17;;;2.27;;
17363;SDS011;8799;43.594;13.526;2022-09-16T13:15:26;6.73;;;2.07;;
17363;SDS011;8799;43.594;13.526;2022-09-16T13:18:06;9.10;;;2.17;;
17363;SDS011;8799;43.594;13.526;2022-09-16T13:20:36;12.30;;;1.83;;
17363;SDS011;8799;43.594;13.526;2022-09-16T13:23:11;6.37;;;1.73;;
17363;SDS011;8799;43.594;13.526;2022-09-16T13:25:46;11.60;;;2.00;;
17363;SDS011;8799;43.594;13.526;2022-09-16T13:28:23;6.27;;;1.80;;
17363;SDS011;8799;43.594;13.526;2022-09-16T13:31:17;2.93;;;1.70;;
17363;SDS011;8799;43.594;13.526;2022-09-16T13:33:46;4.60;;;1.57;;
17363;SDS011;8799;43.594;13.526;2022-09-16T13:36:16;6.63;;;1.60;;
17363;SDS011;8799;43.594;13.526;2022-09-16T13:38:57;7.63;;;2.13;;
17363;SDS011;8799;43.594;13.526;2022-09-16T13:41:31;4.70;;;2.40;;
17363;SDS011;8799;43.594;13.526;2022-09-16T13:44:01;8.10;;;1.90;;
17363;SDS011;8799;43.594;13.526;2022-09-16T13:46:50;5.43;;;1.83;;
17363;SDS011;8799;43.594;13.526;2022-09-16T13:49:18;6.93;;;2.10;;
17363;SDS011;8799;43.594;13.526;2022-09-16T13:51:50;9.63;;;2.03;;
17363;SDS011;8799;43.594;13.526;2022-09-16T13:54:25;9.90;;;2.03;;
17363;SDS011;8799;43.594;13.526;2022-09-16T13:57:09;8.13;;;1.70;;
17363;SDS011;8799;43.594;13.526;2022-09-16T14:00:08;5.30;;;1.77;;
17363;SDS011;8799;43.594;13.526;2022-09-16T14:02:46;6.40;;;1.60;;
17363;SDS011;8799;43.594;13.526;2022-09-16T14:05:36;5.13;;;1.63;;
17363;SDS011;8799;43.594;13.526;2022-09-16T14:08:21;4.40;;;1.63;;
17363;SDS011;8799;43.594;13.526;2022-09-16T14:10:59;7.50;;;1.73;;
17363;SDS011;8799;43.594;13.526;2022-09-16T14:13:36;3.93;;;1.47;;
17363;SDS011;8799;43.594;13.526;2022-09-16T14:16:10;5.93;;;1.70;;
17363;SDS011;8799;43.594;13.526;2022-09-16T14:18:50;4.20;;;1.50;;
17363;SDS011;8799;43.594;13.526;2022-09-16T14:21:22;6.97;;;1.80;;
17363;SDS011;8799;43.594;13.526;2022-09-16T14:23:51;6.13;;;1.70;;
17363;SDS011;8799;43.594;13.526;2022-09-16T14:26:20;5.30;;;1.70;;
17363;SDS011;8799;43.594;13.526;2022-09-16T14:29:01;5.00;;;1.80;;
17363;SDS011;8799;43.594;13.526;2022-09-16T14:31:31;7.90;;;1.80;;
17363;SDS011;8799;43.594;13.526;2022-09-16T14:34:00;5.90;;;1.77;;
17363;SDS011;8799;43.594;13.526;2022-09-16T14:36:33;4.57;;;1.80;;
17363;SDS011;8799;43.594;13.526;2022-09-16T14:39:08;4.07;;;1.60;;
17363;SDS011;8799;43.594;13.526;2022-09-16T14:41:38;5.30;;;1.70;;
17363;SDS011;8799;43.594;13.526;2022-09-16T14:44:14;4.90;;;1.90;;
17363;SDS011;8799;43.594;13.526;2022-09-16T14:46:48;4.00;;;1.50;;
17363;SDS011;8799;43.594;13.526;2022-09-16T14:49:17;3.60;;;1.70;;
17363;SDS011;8799;43.594;13.526;2022-09-16T14:51:47;6.20;;;1.90;;
17363;SDS011;8799;43.594;13.526;2022-09-16T14:54:19;4.13;;;1.47;;
17363;SDS011;8799;43.594;13.526;2022-09-16T14:56:55;2.50;;;1.30;;
17363;SDS011;8799;43.594;13.526;2022-09-16T14:59:27;5.43;;;1.50;;
17363;SDS011;8799;43.594;13.526;2022-09-16T15:01:58;6.27;;;1.50;;
17363;SDS011;8799;43.594;13.526;2022-09-16T15:04:32;3.70;;;1.40;;
17363;SDS011;8799;43.594;13.526;2022-09-16T15:07:06;3.60;;;1.40;;
17363;SDS011;8799;43.594;13.526;2022-09-16T15:09:38;3.70;;;1.23;;
17363;SDS011;8799;43.594;13.526;2022-09-16T15:12:18;3.33;;;1.30;;
17363;SDS011;8799;43.594;13.526;2022-09-16T15:14:51;2.60;;;1.70;;
17363;SDS011;8799;43.594;13.526;2022-09-16T15:17:20;2.33;;;1.13;;
17363;SDS011;8799;43.594;13.526;2022-09-16T15:19:52;2.10;;;1.20;;
17363;SDS011;8799;43.594;13.526;2022-09-16T15:22:23;4.17;;;1.33;;
17363;SDS011;8799;43.594;13.526;2022-09-16T15:24:53;8.43;;;1.67;;
17363;SDS011;8799;43.594;13.526;2022-09-16T15:27:24;4.87;;;1.53;;
17363;SDS011;8799;43.594;13.526;2022-09-16T15:29:55;4.33;;;1.37;;
17363;SDS011;8799;43.594;13.526;2022-09-16T15:32:25;3.97;;;1.40;;
17363;SDS011;8799;43.594;13.526;2022-09-16T15:37:48;2.23;;;1.27;;